createdAt,value
2019-05-14T00:00:17.933Z,102844.20
2019-05-14T00:02:44.900Z,102837.66
2019-05-14T00:05:12.265Z,102844.25
2019-05-14T00:07:41.392Z,102840.26
2019-05-14T00:10:08.266Z,102848.45
2019-05-14T00:12:35.224Z,102851.36
2019-05-14T00:15:02.344Z,102844.25
2019-05-14T00:17:29.355Z,102849.61
2019-05-14T00:20:06.337Z,102849.98
2019-05-14T00:22:25.153Z,102844.41
2019-05-14T00:24:52.204Z,102847.86
2019-05-14T00:27:19.237Z,102853.00
2019-05-14T00:29:46.169Z,102835.32
2019-05-14T00:32:13.204Z,102840.55
2019-05-14T00:34:42.149Z,102836.58
2019-05-14T00:37:11.192Z,102825.97
2019-05-14T00:39:37.846Z,102833.69
2019-05-14T00:42:04.815Z,102838.89
2019-05-14T00:44:32.305Z,102829.17
2019-05-14T00:47:01.990Z,102829.70
2019-05-14T00:49:28.485Z,102827.80
2019-05-14T00:51:55.476Z,102834.47
2019-05-14T00:54:22.435Z,102828.17
2019-05-14T00:56:49.417Z,102830.30
2019-05-14T00:59:16.359Z,102835.88
2019-05-14T01:01:43.344Z,102830.52
2019-05-14T01:04:11.813Z,102833.75
2019-05-14T01:06:38.869Z,102827.02
2019-05-14T01:09:06.043Z,102833.75
2019-05-14T01:11:33.001Z,102830.09
2019-05-14T01:14:01.759Z,102831.22
2019-05-14T01:16:28.823Z,102826.55
2019-05-14T01:18:55.802Z,102819.77
2019-05-14T01:21:22.726Z,102816.95
2019-05-14T01:23:51.398Z,102816.16
2019-05-14T01:26:18.460Z,102810.66
2019-05-14T01:28:45.432Z,102816.34
2019-05-14T01:31:14.778Z,102810.88
2019-05-14T01:33:41.252Z,102817.80
2019-05-14T01:36:08.175Z,102815.92
2019-05-14T01:38:35.147Z,102811.23
2019-05-14T01:41:02.188Z,102800.03
2019-05-14T01:43:31.285Z,102805.77
2019-05-14T01:45:58.017Z,102797.97
2019-05-14T01:48:25.008Z,102790.72
2019-05-14T01:50:52.246Z,102800.86
2019-05-14T01:53:19.409Z,102792.97
2019-05-14T01:55:46.942Z,102790.13
2019-05-14T01:58:13.916Z,102785.21
2019-05-14T02:00:41.603Z,102775.75
2019-05-14T02:03:08.736Z,102774.60
2019-05-14T02:05:35.664Z,102774.80
2019-05-14T02:08:02.627Z,102766.47
2019-05-14T02:10:31.483Z,102767.14
2019-05-14T02:12:58.440Z,102757.51
2019-05-14T02:15:36.300Z,102767.50
2019-05-14T02:17:54.210Z,102764.38
2019-05-14T02:20:21.676Z,102766.97
2019-05-14T02:22:48.735Z,102757.98
2019-05-14T02:25:15.669Z,102752.09
2019-05-14T02:27:42.597Z,102760.98
2019-05-14T02:30:10.791Z,102755.37
2019-05-14T02:32:40.406Z,102756.78
2019-05-14T02:35:09.875Z,102763.94
2019-05-14T02:37:39.266Z,102758.03
2019-05-14T02:40:05.186Z,102761.80
2019-05-14T02:42:32.162Z,102762.70
2019-05-14T02:44:59.412Z,102753.84
2019-05-14T02:47:29.666Z,102749.88
2019-05-14T02:49:55.307Z,102750.21
2019-05-14T02:52:22.242Z,102749.70
2019-05-14T02:54:49.749Z,102745.72
2019-05-14T02:57:19.713Z,102746.02
2019-05-14T02:59:45.596Z,102743.95
2019-05-14T03:02:12.521Z,102749.42
2019-05-14T03:04:39.982Z,102755.63
2019-05-14T03:07:10.527Z,102752.98
2019-05-14T03:09:39.950Z,102753.53
2019-05-14T03:12:04.870Z,102749.28
2019-05-14T03:14:31.824Z,102749.08
2019-05-14T03:16:59.592Z,102747.75
2019-05-14T03:19:29.593Z,102754.23
2019-05-14T03:21:55.555Z,102749.55
2019-05-14T03:24:22.519Z,102755.94
2019-05-14T03:26:50.188Z,102752.14
2019-05-14T03:29:19.648Z,102754.47
2019-05-14T03:31:51.901Z,102755.37
2019-05-14T03:34:15.058Z,102756.22
2019-05-14T03:36:43.390Z,102757.12
2019-05-14T03:39:10.944Z,102752.33
2019-05-14T03:41:39.745Z,102749.34
2019-05-14T03:44:09.903Z,102749.16
2019-05-14T03:46:45.847Z,102746.56
2019-05-14T03:49:04.782Z,102741.04
2019-05-14T03:51:31.707Z,102738.78
2019-05-14T03:54:05.849Z,102737.56
2019-05-14T03:56:29.907Z,102732.65
2019-05-14T03:58:59.662Z,102726.95
2019-05-14T04:01:29.323Z,102733.77
2019-05-14T04:03:54.784Z,102744.15
2019-05-14T04:06:24.511Z,102748.61
2019-05-14T04:08:52.053Z,102743.33
2019-05-14T04:11:20.930Z,102743.27
2019-05-14T04:13:51.380Z,102737.81
2019-05-14T04:16:21.458Z,102744.86
2019-05-14T04:18:50.399Z,102741.78
2019-05-14T04:21:20.480Z,102745.67
2019-05-14T04:23:50.833Z,102743.21
2019-05-14T04:26:20.119Z,102746.95
2019-05-14T04:28:50.020Z,102747.23
2019-05-14T04:31:19.228Z,102750.18
2019-05-14T04:33:50.071Z,102742.75
2019-05-14T04:36:19.562Z,102739.16
2019-05-14T04:38:51.480Z,102742.58
2019-05-14T04:41:19.477Z,102736.00
2019-05-14T04:43:49.655Z,102727.45
2019-05-14T04:46:15.211Z,102734.73
2019-05-14T04:48:43.815Z,102726.23
2019-05-14T04:51:11.020Z,102730.87
2019-05-14T04:53:39.399Z,102731.77
2019-05-14T04:56:09.823Z,102729.36
2019-05-14T04:58:35.595Z,102724.51
2019-05-14T05:01:02.561Z,102730.73
2019-05-14T05:03:31.382Z,102729.99
2019-05-14T05:05:59.045Z,102730.48
2019-05-14T05:08:26.210Z,102731.37
2019-05-14T05:10:53.178Z,102730.80
2019-05-14T05:13:20.136Z,102719.88
2019-05-14T05:15:48.670Z,102729.85
2019-05-14T05:18:18.425Z,102737.87
2019-05-14T05:20:44.732Z,102734.63
2019-05-14T05:23:11.778Z,102736.84
2019-05-14T05:25:38.744Z,102741.23
2019-05-14T05:28:05.704Z,102731.34
2019-05-14T05:30:32.701Z,102729.77
2019-05-14T05:32:59.838Z,102723.17
2019-05-14T05:35:29.156Z,102727.53
2019-05-14T05:37:58.232Z,102723.94
2019-05-14T05:40:24.721Z,102727.12
2019-05-14T05:42:52.914Z,102729.41
2019-05-14T05:45:19.894Z,102718.67
2019-05-14T05:47:55.256Z,102721.34
2019-05-14T05:50:15.865Z,102723.69
2019-05-14T05:52:42.833Z,102720.59
2019-05-14T05:55:09.989Z,102724.61
2019-05-14T05:57:39.224Z,102717.98
2019-05-14T06:00:06.325Z,102718.78
2019-05-14T06:02:33.307Z,102683.70
2019-05-14T06:05:00.366Z,102720.80
2019-05-14T06:07:28.891Z,102721.98
2019-05-14T06:09:56.091Z,102726.55
2019-05-14T06:12:23.078Z,102728.08
2019-05-14T06:14:50.018Z,102723.41
2019-05-14T06:17:19.162Z,102726.77
2019-05-14T06:19:45.831Z,102713.47
2019-05-14T06:22:12.898Z,102716.78
2019-05-14T06:24:39.837Z,102712.13
2019-05-14T06:27:09.169Z,102715.04
2019-05-14T06:29:38.120Z,102707.33
2019-05-14T06:32:04.526Z,102698.78
2019-05-14T06:34:31.463Z,102701.48
2019-05-14T06:36:59.144Z,102701.67
2019-05-14T06:39:28.225Z,102695.00
2019-05-14T06:41:55.110Z,102695.97
2019-05-14T06:44:22.058Z,102702.19
2019-05-14T06:46:52.385Z,102700.41
2019-05-14T06:49:18.349Z,102706.27
2019-05-14T06:51:45.525Z,102700.27
2019-05-14T06:54:12.467Z,102698.77
2019-05-14T06:56:39.420Z,102701.11
2019-05-14T06:59:08.813Z,102700.18
2019-05-14T07:01:35.255Z,102699.83
2019-05-14T07:04:02.223Z,102705.09
2019-05-14T07:06:29.289Z,102704.77
2019-05-14T07:08:58.674Z,102705.92
2019-05-14T07:11:25.148Z,102704.41
2019-05-14T07:13:52.093Z,102702.73
2019-05-14T07:16:19.850Z,102712.64
2019-05-14T07:18:52.975Z,102717.27
2019-05-14T07:21:18.480Z,102709.73
2019-05-14T07:23:44.803Z,102713.31
2019-05-14T07:26:11.753Z,102700.87
2019-05-14T07:28:42.235Z,102701.41
2019-05-14T07:31:09.804Z,102703.20
2019-05-14T07:33:38.836Z,102704.86
2019-05-14T07:36:05.311Z,102700.53
2019-05-14T07:38:32.271Z,102707.59
2019-05-14T07:40:59.182Z,102710.28
2019-05-14T07:43:28.544Z,102709.00
2019-05-14T07:45:54.991Z,102718.67
2019-05-14T07:48:21.996Z,102715.08
2019-05-14T07:50:51.896Z,102714.20
2019-05-14T07:53:18.059Z,102718.77
2019-05-14T07:55:45.210Z,102719.81
2019-05-14T07:58:12.208Z,102710.59
2019-05-14T08:00:40.204Z,102714.91
2019-05-14T08:03:08.256Z,102709.77
2019-05-14T08:05:35.214Z,102714.06
2019-05-14T08:08:02.645Z,102711.56
2019-05-14T08:10:29.648Z,102712.98
2019-05-14T08:12:58.780Z,102705.20
2019-05-14T08:15:25.464Z,102704.39
2019-05-14T08:17:52.435Z,102703.50
2019-05-14T08:20:20.384Z,102704.85
2019-05-14T08:22:49.014Z,102700.49
2019-05-14T08:25:16.264Z,102707.09
2019-05-14T08:27:43.247Z,102697.48
2019-05-14T08:30:10.494Z,102696.15
2019-05-14T08:32:39.078Z,102688.73
2019-05-14T08:35:08.890Z,102690.03
2019-05-14T08:37:35.731Z,102679.56
2019-05-14T08:40:03.035Z,102674.30
2019-05-14T08:42:34.072Z,102671.23
2019-05-14T08:44:59.347Z,102668.62
2019-05-14T08:47:28.980Z,102664.27
2019-05-14T08:49:55.387Z,102658.16
2019-05-14T08:52:22.347Z,102658.55
2019-05-14T08:55:04.362Z,102660.28
2019-05-14T08:57:19.116Z,102657.22
2019-05-14T08:59:48.602Z,102653.28
2019-05-14T09:02:15.078Z,102653.73
2019-05-14T09:04:44.950Z,102657.24
2019-05-14T09:07:12.115Z,102647.53
2019-05-14T09:09:39.089Z,102645.80
2019-05-14T09:12:12.177Z,102642.73
2019-05-14T09:14:34.992Z,102650.25
2019-05-14T09:17:01.926Z,102640.11
2019-05-14T09:19:28.904Z,102643.91
2019-05-14T09:21:58.617Z,102636.52
2019-05-14T09:24:24.723Z,102648.42
2019-05-14T09:26:51.704Z,102642.66
2019-05-14T09:29:25.488Z,102650.62
2019-05-14T09:31:49.439Z,102639.24
2019-05-14T09:34:16.487Z,102633.00
2019-05-14T09:36:43.420Z,102631.69
2019-05-14T09:39:12.339Z,102630.82
2019-05-14T09:41:39.394Z,102633.45
2019-05-14T09:44:06.404Z,102629.98
2019-05-14T09:46:33.359Z,102636.55
2019-05-14T09:49:00.313Z,102634.84
2019-05-14T09:51:28.797Z,102637.86
2019-05-14T09:53:55.955Z,102645.72
2019-05-14T09:56:23.219Z,102641.77
2019-05-14T09:58:50.178Z,102645.74
2019-05-14T10:01:19.396Z,102641.36
2019-05-14T10:03:45.991Z,102628.68
2019-05-14T10:06:12.968Z,102631.59
2019-05-14T10:08:40.183Z,102631.58
2019-05-14T10:11:07.116Z,102632.73
2019-05-14T10:13:34.064Z,102626.27
2019-05-14T10:16:01.060Z,102623.44
2019-05-14T10:18:28.485Z,102620.92
2019-05-14T10:20:55.590Z,102620.00
2019-05-14T10:23:22.557Z,102618.00
2019-05-14T10:25:49.493Z,102606.85
2019-05-14T10:28:19.056Z,102605.24
2019-05-14T10:30:45.463Z,102597.97
2019-05-14T10:33:15.024Z,102601.52
2019-05-14T10:35:41.594Z,102597.53
2019-05-14T10:38:08.927Z,102584.95
2019-05-14T10:40:38.213Z,102583.52
2019-05-14T10:43:04.872Z,102589.32
2019-05-14T10:45:31.894Z,102587.64
2019-05-14T10:47:58.830Z,102587.95
2019-05-14T10:50:25.788Z,102584.98
2019-05-14T10:52:52.862Z,102579.45
2019-05-14T10:55:19.818Z,102581.98
2019-05-14T10:57:46.800Z,102572.42
2019-05-14T11:00:14.205Z,102563.54
2019-05-14T11:02:41.122Z,102565.12
2019-05-14T11:05:08.395Z,102559.31
2019-05-14T11:07:41.393Z,102558.37
2019-05-14T11:10:09.037Z,102562.78
2019-05-14T11:12:35.432Z,102557.02
2019-05-14T11:15:02.447Z,102550.05
2019-05-14T11:17:29.419Z,102542.41
2019-05-14T11:19:58.542Z,102532.91
2019-05-14T11:22:25.243Z,102537.21
2019-05-14T11:24:52.208Z,102536.84
2019-05-14T11:27:19.296Z,102538.91
2019-05-14T11:29:48.871Z,102532.42
2019-05-14T11:32:15.173Z,102531.95
2019-05-14T11:34:42.145Z,102516.52
2019-05-14T11:37:09.081Z,102519.53
2019-05-14T11:39:37.963Z,102511.29
2019-05-14T11:42:05.098Z,102507.41
2019-05-14T11:44:32.060Z,102497.41
2019-05-14T11:47:02.455Z,102502.53
2019-05-14T11:49:27.877Z,102489.83
2019-05-14T11:52:04.205Z,102496.70
2019-05-14T11:54:23.732Z,102490.34
2019-05-14T11:56:50.713Z,102491.61
2019-05-14T11:59:18.956Z,102489.93
2019-05-14T12:01:49.275Z,102489.99
2019-05-14T12:04:15.865Z,102484.14
2019-05-14T12:06:42.843Z,102486.88
2019-05-14T12:09:11.870Z,102474.58
2019-05-14T12:11:38.797Z,102476.31
2019-05-14T12:14:08.577Z,102475.59
2019-05-14T12:16:35.326Z,102476.52
2019-05-14T12:19:02.366Z,102470.47
2019-05-14T12:21:29.354Z,102474.59
2019-05-14T12:24:03.152Z,102467.27
2019-05-14T12:26:25.226Z,102475.35
2019-05-14T12:28:55.903Z,102465.93
2019-05-14T12:31:21.052Z,102461.58
2019-05-14T12:33:48.873Z,102455.05
2019-05-14T12:36:19.028Z,102456.28
2019-05-14T12:38:45.029Z,102454.89
2019-05-14T12:41:12.096Z,102444.59
2019-05-14T12:43:39.825Z,102447.65
2019-05-14T12:46:10.458Z,102448.27
2019-05-14T12:48:39.039Z,102438.97
2019-05-14T12:51:05.747Z,102428.78
2019-05-14T12:53:32.698Z,102439.67
2019-05-14T12:55:59.678Z,102439.72
2019-05-14T12:58:28.515Z,102433.41
2019-05-14T13:00:55.754Z,102437.98
2019-05-14T13:03:22.720Z,102431.31
2019-05-14T13:05:49.696Z,102430.91
2019-05-14T13:08:18.432Z,102429.39
2019-05-14T13:10:45.588Z,102421.41
2019-05-14T13:13:12.605Z,102417.60
2019-05-14T13:15:39.608Z,102417.95
2019-05-14T13:18:08.702Z,102416.50
2019-05-14T13:20:35.450Z,102415.94
2019-05-14T13:23:02.389Z,102406.61
2019-05-14T13:25:30.411Z,102405.55
2019-05-14T13:27:59.435Z,102403.64
2019-05-14T13:30:26.485Z,102398.86
2019-05-14T13:32:53.490Z,102381.05
2019-05-14T13:35:20.449Z,102381.56
2019-05-14T13:37:49.113Z,102370.83
2019-05-14T13:40:20.819Z,102367.16
2019-05-14T13:42:45.643Z,102365.20
2019-05-14T13:45:13.524Z,102366.15
2019-05-14T13:47:40.514Z,102366.30
2019-05-14T13:50:08.712Z,102361.02
2019-05-14T13:52:38.704Z,102354.67
2019-05-14T13:55:05.042Z,102347.64
2019-05-14T13:57:32.019Z,102350.77
2019-05-14T13:59:59.093Z,102347.02
2019-05-14T14:02:28.865Z,102337.31
2019-05-14T14:04:54.996Z,102337.58
2019-05-14T14:07:21.945Z,102329.03
2019-05-14T14:09:49.891Z,102337.29
2019-05-14T14:12:17.009Z,102340.83
2019-05-14T14:14:43.970Z,102337.97
2019-05-14T14:17:10.949Z,102323.80
2019-05-14T14:19:38.865Z,102324.80
2019-05-14T14:22:06.006Z,102321.55
2019-05-14T14:24:32.956Z,102310.02
2019-05-14T14:26:59.994Z,102318.36
2019-05-14T14:29:26.964Z,102324.45
2019-05-14T14:31:53.981Z,102315.56
2019-05-14T14:34:20.946Z,102305.59
2019-05-14T14:36:50.017Z,102308.72
2019-05-14T14:39:19.125Z,102296.30
2019-05-14T14:41:45.727Z,102294.52
2019-05-14T14:44:12.697Z,102302.31
2019-05-14T14:46:39.675Z,102294.14
2019-05-14T14:49:06.664Z,102279.27
2019-05-14T14:51:33.608Z,102288.04
2019-05-14T14:54:10.687Z,102279.76
2019-05-14T14:56:31.281Z,102279.09
2019-05-14T14:58:58.249Z,102272.36
2019-05-14T15:01:25.323Z,102276.83
2019-05-14T15:03:52.371Z,102272.41
2019-05-14T15:06:19.371Z,102270.47
2019-05-14T15:08:49.377Z,102260.63
2019-05-14T15:11:15.241Z,102265.51
2019-05-14T15:13:42.237Z,102271.58
2019-05-14T15:16:13.526Z,102269.98
2019-05-14T15:18:38.758Z,102273.17
2019-05-14T15:21:05.946Z,102267.00
2019-05-14T15:23:33.001Z,102261.78
2019-05-14T15:25:59.965Z,102259.61
2019-05-14T15:28:27.026Z,102259.02
2019-05-14T15:30:53.996Z,102261.74
2019-05-14T15:33:20.986Z,102252.08
2019-05-14T15:35:49.065Z,102256.23
2019-05-14T15:38:16.320Z,102254.36
2019-05-14T15:40:43.254Z,102249.73
2019-05-14T15:43:10.255Z,102253.81
2019-05-14T15:45:37.894Z,102245.56
2019-05-14T15:48:09.015Z,102241.27
2019-05-14T15:50:38.776Z,102237.17
2019-05-14T15:53:04.958Z,102239.23
2019-05-14T15:55:31.904Z,102233.52
2019-05-14T15:57:59.168Z,102228.92
2019-05-14T16:00:28.998Z,102224.53
2019-05-14T16:02:55.079Z,102220.41
2019-05-14T16:05:22.076Z,102211.17
2019-05-14T16:07:49.554Z,102215.63
2019-05-14T16:10:16.899Z,102220.59
2019-05-14T16:12:43.822Z,102060.14
2019-05-14T16:15:10.814Z,102212.97
2019-05-14T16:17:47.627Z,102216.32
2019-05-14T16:20:08.967Z,102205.61
2019-05-14T16:22:39.348Z,102211.98
2019-05-14T16:25:05.010Z,102196.08
2019-05-14T16:27:31.988Z,102199.00
2019-05-14T16:29:58.980Z,102201.91
2019-05-14T16:32:28.370Z,102200.75
2019-05-14T16:34:54.807Z,102200.14
2019-05-14T16:37:21.761Z,102205.33
2019-05-14T16:39:49.058Z,102196.69
2019-05-14T16:42:20.292Z,102195.86
2019-05-14T16:44:44.963Z,102192.98
2019-05-14T16:47:11.898Z,102203.86
2019-05-14T16:49:38.902Z,102208.06
2019-05-14T16:52:08.868Z,102201.05
2019-05-14T16:54:34.717Z,102199.09
2019-05-14T16:57:01.673Z,102198.77
2019-05-14T16:59:29.567Z,102196.64
2019-05-14T17:01:58.518Z,102197.08
2019-05-14T17:04:25.693Z,102193.88
2019-05-14T17:06:52.641Z,102193.41
2019-05-14T17:09:19.626Z,102193.86
2019-05-14T17:11:48.232Z,102192.13
2019-05-14T17:14:15.250Z,102184.67
2019-05-14T17:16:42.225Z,102190.96
2019-05-14T17:19:09.379Z,102186.05
2019-05-14T17:21:38.885Z,102183.77
2019-05-14T17:24:05.374Z,102183.45
2019-05-14T17:26:32.345Z,102181.80
2019-05-14T17:28:59.769Z,102174.14
2019-05-14T17:31:26.862Z,102179.15
2019-05-14T17:33:53.812Z,102181.45
2019-05-14T17:36:20.788Z,102173.69
2019-05-14T17:38:49.163Z,102177.69
2019-05-14T17:41:16.535Z,102188.89
2019-05-14T17:43:43.489Z,102180.78
2019-05-14T17:46:10.479Z,102183.58
2019-05-14T17:48:39.107Z,102176.98
2019-05-14T17:51:09.136Z,102173.55
2019-05-14T17:53:35.341Z,102182.13
2019-05-14T17:56:03.493Z,102171.57
2019-05-14T17:58:30.429Z,102172.95
2019-05-14T18:00:58.163Z,102168.45
2019-05-14T18:03:25.263Z,102170.05
2019-05-14T18:05:52.247Z,102164.63
2019-05-14T18:08:19.189Z,102164.89
2019-05-14T18:10:46.227Z,102168.64
2019-05-14T18:13:13.179Z,102171.47
2019-05-14T18:15:40.158Z,102167.84
2019-05-14T18:18:08.879Z,102161.64
2019-05-14T18:20:36.046Z,102161.77
2019-05-14T18:23:02.980Z,102155.36
2019-05-14T18:25:29.954Z,102161.20
2019-05-14T18:27:56.936Z,102165.25
2019-05-14T18:30:24.031Z,102163.48
2019-05-14T18:32:50.983Z,102158.63
2019-05-14T18:35:18.839Z,102147.97
2019-05-14T18:37:48.137Z,102152.83
2019-05-14T18:40:15.117Z,102154.10
2019-05-14T18:42:42.075Z,102149.80
2019-05-14T18:45:09.394Z,102149.53
2019-05-14T18:47:36.340Z,102146.60
2019-05-14T18:50:05.248Z,102140.11
2019-05-14T18:52:32.176Z,102151.92
2019-05-14T18:54:59.269Z,102150.72
2019-05-14T18:57:28.513Z,102148.14
2019-05-14T18:59:55.555Z,102149.81
2019-05-14T19:02:22.964Z,102147.59
2019-05-14T19:04:49.970Z,102153.45
2019-05-14T19:07:18.927Z,102153.24
2019-05-14T19:09:49.237Z,102148.21
2019-05-14T19:12:16.011Z,102147.08
2019-05-14T19:14:42.986Z,102143.13
2019-05-14T19:17:09.976Z,102147.63
2019-05-14T19:19:38.651Z,102150.88
2019-05-14T19:22:05.795Z,102144.35
2019-05-14T19:24:32.724Z,102138.86
2019-05-14T19:26:59.706Z,102143.26
2019-05-14T19:29:28.163Z,102142.39
2019-05-14T19:31:55.342Z,102139.44
2019-05-14T19:34:22.275Z,102145.67
2019-05-14T19:36:49.253Z,102143.50
2019-05-14T19:39:18.611Z,102150.89
2019-05-14T19:41:45.134Z,102158.63
2019-05-14T19:44:12.111Z,102154.16
2019-05-14T19:46:39.084Z,102141.50
2019-05-14T19:49:08.094Z,102145.90
2019-05-14T19:51:34.904Z,102142.55
2019-05-14T19:54:01.839Z,102147.05
2019-05-14T19:56:29.422Z,102151.89
2019-05-14T19:58:56.489Z,102159.03
2019-05-14T20:01:23.457Z,102147.25
2019-05-14T20:03:50.466Z,102153.11
2019-05-14T20:06:18.728Z,102158.89
2019-05-14T20:08:48.279Z,102162.86
2019-05-14T20:11:14.850Z,102158.12
2019-05-14T20:13:41.835Z,102156.41
2019-05-14T20:16:08.816Z,102162.55
2019-05-14T20:18:38.066Z,102160.48
2019-05-14T20:21:04.659Z,102156.66
2019-05-14T20:23:31.624Z,102161.00
2019-05-14T20:25:58.775Z,102161.03
2019-05-14T20:28:25.757Z,102157.58
2019-05-14T20:30:52.733Z,102157.20
2019-05-14T20:33:19.717Z,102158.11
2019-05-14T20:35:48.555Z,102155.86
2019-05-14T20:38:15.523Z,102156.86
2019-05-14T20:40:42.445Z,102156.03
2019-05-14T20:43:10.479Z,102157.85
2019-05-14T20:45:39.077Z,102153.94
2019-05-14T20:48:06.317Z,102160.42
2019-05-14T20:50:33.318Z,102156.96
2019-05-14T20:53:00.328Z,102149.70
2019-05-14T20:55:28.644Z,102156.25
2019-05-14T20:57:55.949Z,102154.44
2019-05-14T21:00:22.888Z,102155.37
2019-05-14T21:02:49.844Z,102148.91
2019-05-14T21:05:18.754Z,102154.13
2019-05-14T21:07:45.660Z,102150.69
2019-05-14T21:10:13.596Z,102154.22
2019-05-14T21:12:40.577Z,102152.53
2019-05-14T21:15:08.969Z,102147.26
2019-05-14T21:17:36.411Z,102149.02
2019-05-14T21:20:03.605Z,102144.69
2019-05-14T21:22:30.589Z,102146.00
2019-05-14T21:24:57.514Z,102146.84
2019-05-14T21:27:38.577Z,102142.06
2019-05-14T21:29:53.322Z,102150.38
2019-05-14T21:32:20.269Z,102150.41
2019-05-14T21:34:49.171Z,102141.26
2019-05-14T21:37:18.618Z,102143.88
2019-05-14T21:39:44.955Z,102141.25
2019-05-14T21:42:11.877Z,102136.91
2019-05-14T21:44:39.294Z,102143.84
2019-05-14T21:47:08.256Z,102139.11
2019-05-14T21:49:35.167Z,102141.28
2019-05-14T21:52:02.117Z,102140.43
2019-05-14T21:54:31.087Z,102146.56
2019-05-14T21:56:58.734Z,102142.64
2019-05-14T21:59:28.002Z,102109.09
2019-05-14T22:01:54.565Z,102139.16
2019-05-14T22:04:21.541Z,102135.25
2019-05-14T22:06:49.071Z,102137.00
2019-05-14T22:09:16.160Z,102143.09
2019-05-14T22:11:43.101Z,102140.91
2019-05-14T22:14:10.073Z,102142.21
2019-05-14T22:16:38.168Z,102147.88
2019-05-14T22:19:05.450Z,102146.59
2019-05-14T22:21:32.407Z,102125.24
2019-05-14T22:23:59.411Z,102141.36
2019-05-14T22:26:28.210Z,102147.02
2019-05-14T22:28:55.247Z,102146.59
2019-05-14T22:31:22.186Z,102145.25
2019-05-14T22:33:49.144Z,102147.90
2019-05-14T22:36:20.896Z,102149.66
2019-05-14T22:38:45.011Z,102143.98
2019-05-14T22:41:11.956Z,102147.05
2019-05-14T22:43:38.975Z,102150.97
2019-05-14T22:46:08.316Z,102143.13
2019-05-14T22:48:34.793Z,102149.20
2019-05-14T22:51:01.728Z,102141.81
2019-05-14T22:53:30.429Z,102140.52
2019-05-14T22:55:58.616Z,102147.02
2019-05-14T22:58:26.075Z,102149.20
2019-05-14T23:01:06.722Z,102151.80
2019-05-14T23:03:22.511Z,102151.36
2019-05-14T23:05:49.475Z,102149.16
2019-05-14T23:08:18.441Z,102147.41
2019-05-14T23:10:45.322Z,102146.11
2019-05-14T23:13:12.264Z,102140.41
2019-05-14T23:15:39.244Z,102149.94
2019-05-14T23:18:08.143Z,102143.38
2019-05-14T23:20:35.062Z,102141.21
2019-05-14T23:23:01.996Z,102137.25
2019-05-14T23:25:29.318Z,102138.13
2019-05-14T23:27:58.742Z,102142.89
2019-05-14T23:30:32.274Z,102142.89
2019-05-14T23:32:59.357Z,102134.55
2019-05-14T23:35:28.332Z,102135.41
2019-05-14T23:37:55.353Z,102134.01
2019-05-14T23:40:22.414Z,102132.75
2019-05-14T23:42:49.373Z,102131.84
2019-05-14T23:45:18.810Z,102127.97
2019-05-14T23:47:45.205Z,102127.02
2019-05-14T23:50:12.181Z,102126.98
2019-05-14T23:52:39.124Z,102126.09
2019-05-14T23:55:08.618Z,102119.14
2019-05-14T23:57:35.264Z,102118.22
